sensor_id;sensor_type;location;lat;lon;timestamp;pressure;altitude;pressure_sealevel;temperature;humidity
74045;BME280;62389;51.412;5.436;2023-03-23T00:01:47;100175.06;;;10.95;88.68
74045;BME280;62389;51.412;5.436;2023-03-23T00:04:15;100181.78;;;10.99;88.18
74045;BME280;62389;51.412;5.436;2023-03-23T00:06:40;100162.56;;;11.00;87.92
74045;BME280;62389;51.412;5.436;2023-03-23T00:09:06;100145.00;;;11.02;88.14
74045;BME280;62389;51.412;5.436;2023-03-23T00:11:32;100152.84;;;11.02;88.30
74045;BME280;62389;51.412;5.436;2023-03-23T00:13:59;100169.38;;;11.02;88.08
74045;BME280;62389;51.412;5.436;2023-03-23T00:16:27;100181.63;;;11.02;88.64
74045;BME280;62389;51.412;5.436;2023-03-23T00:19:02;100161.44;;;11.04;88.23
74045;BME280;62389;51.412;5.436;2023-03-23T00:21:31;100150.97;;;11.04;88.14
74045;BME280;62389;51.412;5.436;2023-03-23T00:24:02;100141.34;;;11.04;88.08
74045;BME280;62389;51.412;5.436;2023-03-23T00:26:28;100156.22;;;11.04;88.11
74045;BME280;62389;51.412;5.436;2023-03-23T00:28:54;100157.03;;;11.04;88.05
74045;BME280;62389;51.412;5.436;2023-03-23T00:31:20;100156.22;;;11.04;87.81
74045;BME280;62389;51.412;5.436;2023-03-23T00:33:45;100156.03;;;11.07;87.44
74045;BME280;62389;51.412;5.436;2023-03-23T00:36:11;100154.19;;;11.09;87.44
74045;BME280;62389;51.412;5.436;2023-03-23T00:38:38;100150.66;;;11.10;87.32
74045;BME280;62389;51.412;5.436;2023-03-23T00:41:04;100153.16;;;11.11;86.89
74045;BME280;62389;51.412;5.436;2023-03-23T00:43:31;100164.47;;;11.12;87.21
74045;BME280;62389;51.412;5.436;2023-03-23T00:45:57;100164.31;;;11.15;86.95
74045;BME280;62389;51.412;5.436;2023-03-23T00:48:27;100150.28;;;11.16;86.83
74045;BME280;62389;51.412;5.436;2023-03-23T00:50:52;100149.25;;;11.19;86.51
74045;BME280;62389;51.412;5.436;2023-03-23T00:53:18;100150.88;;;11.21;86.97
74045;BME280;62389;51.412;5.436;2023-03-23T00:55:45;100152.66;;;11.21;86.88
74045;BME280;62389;51.412;5.436;2023-03-23T00:58:12;100150.88;;;11.21;86.90
74045;BME280;62389;51.412;5.436;2023-03-23T01:00:38;100151.81;;;11.20;87.05
74045;BME280;62389;51.412;5.436;2023-03-23T01:03:04;100144.81;;;11.21;87.10
74045;BME280;62389;51.412;5.436;2023-03-23T01:05:37;100144.69;;;11.22;86.65
74045;BME280;62389;51.412;5.436;2023-03-23T01:08:04;100144.69;;;11.22;87.01
74045;BME280;62389;51.412;5.436;2023-03-23T01:10:31;100152.41;;;11.25;86.94
74045;BME280;62389;51.412;5.436;2023-03-23T01:13:01;100139.31;;;11.25;86.93
74045;BME280;62389;51.412;5.436;2023-03-23T01:15:27;100132.34;;;11.24;86.83
74045;BME280;62389;51.412;5.436;2023-03-23T01:17:53;100116.66;;;11.24;86.81
74045;BME280;62389;51.412;5.436;2023-03-23T01:20:19;100115.81;;;11.24;86.66
74045;BME280;62389;51.412;5.436;2023-03-23T01:22:44;100110.66;;;11.22;87.03
74045;BME280;62389;51.412;5.436;2023-03-23T01:25:11;100104.59;;;11.22;86.77
74045;BME280;62389;51.412;5.436;2023-03-23T01:27:38;100108.06;;;11.22;86.84
74045;BME280;62389;51.412;5.436;2023-03-23T01:30:05;100104.59;;;11.22;87.07
74045;BME280;62389;51.412;5.436;2023-03-23T01:32:31;100102.81;;;11.22;87.17
74045;BME280;62389;51.412;5.436;2023-03-23T01:34:57;100100.31;;;11.21;87.14
74045;BME280;62389;51.412;5.436;2023-03-23T01:37:22;100103.19;;;11.16;87.31
74045;BME280;62389;51.412;5.436;2023-03-23T01:39:54;100106.75;;;11.15;87.34
74045;BME280;62389;51.412;5.436;2023-03-23T01:42:34;100105.03;;;11.14;87.55
74045;BME280;62389;51.412;5.436;2023-03-23T01:47:45;100116.53;;;11.11;87.50
74045;BME280;62389;51.412;5.436;2023-03-23T01:50:11;100120.94;;;11.11;87.88
74045;BME280;62389;51.412;5.436;2023-03-23T01:52:37;100121.75;;;11.11;87.60
74045;BME280;62389;51.412;5.436;2023-03-23T01:55:03;100112.13;;;11.12;87.29
74045;BME280;62389;51.412;5.436;2023-03-23T01:57:29;100109.34;;;11.15;87.15
74045;BME280;62389;51.412;5.436;2023-03-23T01:59:57;100103.94;;;11.18;87.18
74045;BME280;62389;51.412;5.436;2023-03-23T02:02:25;100096.91;;;11.19;87.02
74045;BME280;62389;51.412;5.436;2023-03-23T02:04:55;100086.38;;;11.20;86.70
74045;BME280;62389;51.412;5.436;2023-03-23T02:07:25;100087.28;;;11.19;86.89
74045;BME280;62389;51.412;5.436;2023-03-23T02:09:51;100078.53;;;11.20;86.36
74045;BME280;62389;51.412;5.436;2023-03-23T02:12:17;100077.69;;;11.20;86.47
74045;BME280;62389;51.412;5.436;2023-03-23T02:14:43;100078.44;;;11.22;86.23
74045;BME280;62389;51.412;5.436;2023-03-23T02:17:31;100066.19;;;11.22;86.22
74045;BME280;62389;51.412;5.436;2023-03-23T02:26:00;100068.06;;;11.34;85.41
74045;BME280;62389;51.412;5.436;2023-03-23T02:33:47;100067.88;;;11.37;84.74
74045;BME280;62389;51.412;5.436;2023-03-23T02:36:38;100060.78;;;11.39;85.42
74045;BME280;62389;51.412;5.436;2023-03-23T02:39:15;100055.53;;;11.39;84.85
74045;BME280;62389;51.412;5.436;2023-03-23T02:41:54;100052.66;;;11.44;84.73
74045;BME280;62389;51.412;5.436;2023-03-23T02:44:23;100050.91;;;11.45;85.12
74045;BME280;62389;51.412;5.436;2023-03-23T02:46:51;100056.13;;;11.45;84.88
74045;BME280;62389;51.412;5.436;2023-03-23T02:49:19;100056.13;;;11.45;84.96
74045;BME280;62389;51.412;5.436;2023-03-23T02:51:46;100061.38;;;11.45;84.94
74045;BME280;62389;51.412;5.436;2023-03-23T02:54:15;100057.88;;;11.44;85.17
74045;BME280;62389;51.412;5.436;2023-03-23T02:56:42;100063.13;;;11.44;85.41
74045;BME280;62389;51.412;5.436;2023-03-23T02:59:08;100059.66;;;11.44;85.37
74045;BME280;62389;51.412;5.436;2023-03-23T03:04:01;100053.22;;;11.49;85.43
74045;BME280;62389;51.412;5.436;2023-03-23T03:09:06;100068.09;;;11.49;85.10
74045;BME280;62389;51.412;5.436;2023-03-23T03:11:35;100057.63;;;11.49;85.32
74045;BME280;62389;51.412;5.436;2023-03-23T03:16:49;100055.94;;;11.48;85.21
74045;BME280;62389;51.412;5.436;2023-03-23T03:19:28;100063.88;;;11.46;84.93
74045;BME280;62389;51.412;5.436;2023-03-23T03:21:55;100059.66;;;11.44;85.30
74045;BME280;62389;51.412;5.436;2023-03-23T03:24:24;100064.91;;;11.44;84.97
74045;BME280;62389;51.412;5.436;2023-03-23T03:26:52;100060.59;;;11.43;84.86
74045;BME280;62389;51.412;5.436;2023-03-23T03:29:32;100061.53;;;11.41;84.91
74045;BME280;62389;51.412;5.436;2023-03-23T03:32:02;100058.94;;;11.41;84.82
74045;BME280;62389;51.412;5.436;2023-03-23T03:34:30;100045.84;;;11.41;84.46
74045;BME280;62389;51.412;5.436;2023-03-23T03:36:57;100059.66;;;11.44;84.11
74045;BME280;62389;51.412;5.436;2023-03-23T03:39:23;100061.53;;;11.41;83.81
74045;BME280;62389;51.412;5.436;2023-03-23T03:41:49;100064.06;;;11.43;84.03
74045;BME280;62389;51.412;5.436;2023-03-23T03:44:15;100070.97;;;11.44;84.05
74045;BME280;62389;51.412;5.436;2023-03-23T03:46:41;100076.31;;;11.43;84.01
74045;BME280;62389;51.412;5.436;2023-03-23T03:49:08;100066.78;;;11.41;83.91
74045;BME280;62389;51.412;5.436;2023-03-23T03:51:35;100057.88;;;11.44;82.07
74045;BME280;62389;51.412;5.436;2023-03-23T03:54:01;100061.38;;;11.45;82.39
74045;BME280;62389;51.412;5.436;2023-03-23T03:56:27;100066.63;;;11.45;82.15
74045;BME280;62389;51.412;5.436;2023-03-23T03:58:52;100081.19;;;11.49;81.85
74045;BME280;62389;51.412;5.436;2023-03-23T04:01:20;100076.72;;;11.51;81.36
74045;BME280;62389;51.412;5.436;2023-03-23T04:03:49;100076.88;;;11.48;81.65
74045;BME280;62389;51.412;5.436;2023-03-23T04:06:16;100074.16;;;11.49;80.87
74045;BME280;62389;51.412;5.436;2023-03-23T04:08:42;100083.06;;;11.47;81.22
74045;BME280;62389;51.412;5.436;2023-03-23T04:11:11;100077.94;;;11.45;80.54
74045;BME280;62389;51.412;5.436;2023-03-23T04:13:38;100083.06;;;11.47;80.44
74045;BME280;62389;51.412;5.436;2023-03-23T04:16:04;100073.31;;;11.49;79.32
74045;BME280;62389;51.412;5.436;2023-03-23T04:18:30;100079.41;;;11.49;80.31
74045;BME280;62389;51.412;5.436;2023-03-23T04:20:57;100082.13;;;11.48;79.85
74045;BME280;62389;51.412;5.436;2023-03-23T04:23:24;100088.88;;;11.52;79.87
74045;BME280;62389;51.412;5.436;2023-03-23T04:25:50;100087.94;;;11.53;79.38
74045;BME280;62389;51.412;5.436;2023-03-23T04:28:17;100087.19;;;11.51;79.28
74045;BME280;62389;51.412;5.436;2023-03-23T04:30:44;100099.50;;;11.49;79.30
74045;BME280;62389;51.412;5.436;2023-03-23T04:33:11;100098.59;;;11.50;80.04
74045;BME280;62389;51.412;5.436;2023-03-23T04:35:41;100097.09;;;11.46;79.55
74045;BME280;62389;51.412;5.436;2023-03-23T04:38:06;100100.56;;;11.46;79.74
74045;BME280;62389;51.412;5.436;2023-03-23T04:40:36;100102.22;;;11.47;78.76
74045;BME280;62389;51.412;5.436;2023-03-23T04:43:02;100110.00;;;11.49;79.04
74045;BME280;62389;51.412;5.436;2023-03-23T04:45:32;100101.41;;;11.47;79.27
74045;BME280;62389;51.412;5.436;2023-03-23T04:47:58;100101.50;;;11.45;79.89
74045;BME280;62389;51.412;5.436;2023-03-23T04:50:33;100097.16;;;11.44;79.46
74045;BME280;62389;51.412;5.436;2023-03-23T04:53:00;100107.84;;;11.41;80.04
74045;BME280;62389;51.412;5.436;2023-03-23T04:55:34;100106.22;;;11.38;79.74
74045;BME280;62389;51.412;5.436;2023-03-23T04:58:03;100098.38;;;11.38;79.87
74045;BME280;62389;51.412;5.436;2023-03-23T05:00:29;100102.66;;;11.39;79.43
74045;BME280;62389;51.412;5.436;2023-03-23T05:02:55;100105.00;;;11.44;79.40
74045;BME280;62389;51.412;5.436;2023-03-23T05:05:22;100101.56;;;11.44;78.94
74045;BME280;62389;51.412;5.436;2023-03-23T05:07:48;100108.69;;;11.41;79.57
74045;BME280;62389;51.412;5.436;2023-03-23T05:10:14;100106.06;;;11.41;79.65
74045;BME280;62389;51.412;5.436;2023-03-23T05:12:41;100111.41;;;11.40;79.90
74045;BME280;62389;51.412;5.436;2023-03-23T05:15:11;100108.00;;;11.38;80.30
74045;BME280;62389;51.412;5.436;2023-03-23T05:17:37;100115.03;;;11.37;81.56
74045;BME280;62389;51.412;5.436;2023-03-23T05:20:04;100120.53;;;11.33;83.10
74045;BME280;62389;51.412;5.436;2023-03-23T05:22:33;100128.16;;;11.22;84.80
74045;BME280;62389;51.412;5.436;2023-03-23T05:24:59;100120.88;;;10.97;86.79
74045;BME280;62389;51.412;5.436;2023-03-23T05:27:28;100123.31;;;10.68;88.81
74045;BME280;62389;51.412;5.436;2023-03-23T05:29:56;100115.09;;;10.44;90.32
74045;BME280;62389;51.412;5.436;2023-03-23T05:32:26;100116.75;;;10.29;91.50
74045;BME280;62389;51.412;5.436;2023-03-23T05:35:00;100120.91;;;10.16;92.11
74045;BME280;62389;51.412;5.436;2023-03-23T05:37:27;100131.75;;;10.08;93.12
74045;BME280;62389;51.412;5.436;2023-03-23T05:39:57;100136.47;;;10.02;94.59
74045;BME280;62389;51.412;5.436;2023-03-23T05:42:27;100122.06;;;9.95;94.35
74045;BME280;62389;51.412;5.436;2023-03-23T05:44:52;100130.78;;;9.94;94.12
74045;BME280;62389;51.412;5.436;2023-03-23T05:47:18;100134.34;;;9.93;94.92
74045;BME280;62389;51.412;5.436;2023-03-23T05:49:43;100141.41;;;9.91;95.15
74045;BME280;62389;51.412;5.436;2023-03-23T05:52:10;100139.72;;;9.90;94.62
74045;BME280;62389;51.412;5.436;2023-03-23T05:54:35;100134.34;;;9.93;94.64
74045;BME280;62389;51.412;5.436;2023-03-23T05:57:02;100122.72;;;9.98;94.61
74045;BME280;62389;51.412;5.436;2023-03-23T05:59:27;100120.66;;;10.05;93.51
74045;BME280;62389;51.412;5.436;2023-03-23T06:01:53;100125.44;;;10.12;92.41
74045;BME280;62389;51.412;5.436;2023-03-23T06:04:22;100119.13;;;10.17;92.50
74045;BME280;62389;51.412;5.436;2023-03-23T06:06:50;100118.91;;;10.21;91.99
74045;BME280;62389;51.412;5.436;2023-03-23T06:09:16;100114.38;;;10.25;90.77
74045;BME280;62389;51.412;5.436;2023-03-23T06:11:42;100119.38;;;10.29;90.75
74045;BME280;62389;51.412;5.436;2023-03-23T06:14:07;100128.72;;;10.33;90.61
74045;BME280;62389;51.412;5.436;2023-03-23T06:16:33;100128.56;;;10.36;91.25
74045;BME280;62389;51.412;5.436;2023-03-23T06:18:58;100133.63;;;10.40;89.96
74045;BME280;62389;51.412;5.436;2023-03-23T06:21:26;100140.34;;;10.44;89.91
74045;BME280;62389;51.412;5.436;2023-03-23T06:23:52;100138.53;;;10.46;90.14
74045;BME280;62389;51.412;5.436;2023-03-23T06:26:18;100142.81;;;10.47;89.03
74045;BME280;62389;51.412;5.436;2023-03-23T06:28:45;100162.66;;;10.51;88.00
74045;BME280;62389;51.412;5.436;2023-03-23T06:31:10;100158.09;;;10.54;88.25
74045;BME280;62389;51.412;5.436;2023-03-23T06:33:37;100157.06;;;10.57;87.75
74045;BME280;62389;51.412;5.436;2023-03-23T06:36:03;100156.91;;;10.60;86.98
74045;BME280;62389;51.412;5.436;2023-03-23T06:38:30;100162.75;;;10.65;87.27
74045;BME280;62389;51.412;5.436;2023-03-23T06:40:56;100159.09;;;10.68;86.88
74045;BME280;62389;51.412;5.436;2023-03-23T06:43:22;100182.28;;;10.74;86.13
74045;BME280;62389;51.412;5.436;2023-03-23T06:45:48;100178.53;;;10.79;86.19
74045;BME280;62389;51.412;5.436;2023-03-23T06:48:13;100178.34;;;10.82;85.92
74045;BME280;62389;51.412;5.436;2023-03-23T06:50:42;100180.81;;;10.85;85.64
74045;BME280;62389;51.412;5.436;2023-03-23T06:53:08;100188.66;;;10.85;85.97
74045;BME280;62389;51.412;5.436;2023-03-23T06:55:34;100184.50;;;10.81;86.82
74045;BME280;62389;51.412;5.436;2023-03-23T06:57:59;100195.91;;;10.80;87.00
74045;BME280;62389;51.412;5.436;2023-03-23T07:00:26;100189.16;;;10.76;87.48
74045;BME280;62389;51.412;5.436;2023-03-23T07:02:52;100182.41;;;10.72;88.35
74045;BME280;62389;51.412;5.436;2023-03-23T07:05:18;100174.69;;;10.69;89.10
74045;BME280;62389;51.412;5.436;2023-03-23T07:07:43;100180.13;;;10.66;88.87
74045;BME280;62389;51.412;5.436;2023-03-23T07:10:09;100187.13;;;10.66;88.33
74045;BME280;62389;51.412;5.436;2023-03-23T07:12:35;100182.88;;;10.63;88.05
74045;BME280;62389;51.412;5.436;2023-03-23T07:15:04;100188.13;;;10.63;87.85
74045;BME280;62389;51.412;5.436;2023-03-23T07:17:30;100197.59;;;10.66;87.91
74045;BME280;62389;51.412;5.436;2023-03-23T07:19:57;100191.66;;;10.62;89.37
74045;BME280;62389;51.412;5.436;2023-03-23T07:22:22;100202.22;;;10.60;89.43
74045;BME280;62389;51.412;5.436;2023-03-23T07:24:47;100203.22;;;10.58;88.95
74045;BME280;62389;51.412;5.436;2023-03-23T07:27:13;100212.00;;;10.57;90.03
74045;BME280;62389;51.412;5.436;2023-03-23T07:29:39;100199.84;;;10.56;90.84
74045;BME280;62389;51.412;5.436;2023-03-23T07:32:05;100199.06;;;10.54;91.14
74045;BME280;62389;51.412;5.436;2023-03-23T07:34:31;100202.63;;;10.53;91.48
74045;BME280;62389;51.412;5.436;2023-03-23T07:36:57;100207.84;;;10.53;92.02
74045;BME280;62389;51.412;5.436;2023-03-23T07:39:23;100206.91;;;10.54;92.44
74045;BME280;62389;51.412;5.436;2023-03-23T07:41:49;100276.16;;;10.47;93.42
74045;BME280;62389;51.412;5.436;2023-03-23T07:44:15;100271.59;;;10.34;93.07
74045;BME280;62389;51.412;5.436;2023-03-23T07:46:40;100261.72;;;9.88;86.50
74045;BME280;62389;51.412;5.436;2023-03-23T07:49:07;100259.06;;;9.36;88.88
74045;BME280;62389;51.412;5.436;2023-03-23T07:51:33;100252.72;;;9.22;89.53
74045;BME280;62389;51.412;5.436;2023-03-23T07:54:00;100252.88;;;9.00;91.33
74045;BME280;62389;51.412;5.436;2023-03-23T07:56:27;100251.03;;;9.02;92.51
74045;BME280;62389;51.412;5.436;2023-03-23T07:58:52;100258.53;;;9.10;92.63
74045;BME280;62389;51.412;5.436;2023-03-23T08:01:18;100264.44;;;9.14;91.32
74045;BME280;62389;51.412;5.436;2023-03-23T08:03:43;100270.50;;;9.14;91.77
74045;BME280;62389;51.412;5.436;2023-03-23T08:06:09;100275.53;;;9.19;92.29
74045;BME280;62389;51.412;5.436;2023-03-23T08:08:35;100284.94;;;9.21;91.21
74045;BME280;62389;51.412;5.436;2023-03-23T08:11:00;100290.16;;;9.21;92.48
74045;BME280;62389;51.412;5.436;2023-03-23T08:13:26;100292.66;;;9.24;91.84
74045;BME280;62389;51.412;5.436;2023-03-23T08:15:51;100292.47;;;9.27;92.33
74045;BME280;62389;51.412;5.436;2023-03-23T08:18:17;100307.94;;;9.32;91.57
74045;BME280;62389;51.412;5.436;2023-03-23T08:20:43;100313.06;;;9.33;91.39
74045;BME280;62389;51.412;5.436;2023-03-23T08:23:10;100311.16;;;9.37;91.56
74045;BME280;62389;51.412;5.436;2023-03-23T08:25:35;100328.47;;;9.40;92.21
74045;BME280;62389;51.412;5.436;2023-03-23T08:28:01;100316.19;;;9.42;91.59
74045;BME280;62389;51.412;5.436;2023-03-23T08:30:28;100308.13;;;9.46;90.22
74045;BME280;62389;51.412;5.436;2023-03-23T08:32:57;100301.00;;;9.50;91.27
74045;BME280;62389;51.412;5.436;2023-03-23T08:35:23;100304.28;;;9.53;91.61
74045;BME280;62389;51.412;5.436;2023-03-23T08:37:50;100308.47;;;9.57;92.47
74045;BME280;62389;51.412;5.436;2023-03-23T08:40:17;100302.31;;;9.58;91.55
74045;BME280;62389;51.412;5.436;2023-03-23T08:42:45;100303.19;;;9.59;92.36
74045;BME280;62389;51.412;5.436;2023-03-23T08:45:12;100316.88;;;9.64;93.08
74045;BME280;62389;51.412;5.436;2023-03-23T08:47:40;100319.31;;;9.67;92.57
74045;BME280;62389;51.412;5.436;2023-03-23T08:50:07;100320.09;;;9.69;91.78
74045;BME280;62389;51.412;5.436;2023-03-23T08:52:33;100309.66;;;9.69;91.90
74045;BME280;62389;51.412;5.436;2023-03-23T08:54:58;100299.22;;;9.69;91.75
74045;BME280;62389;51.412;5.436;2023-03-23T08:57:25;100304.25;;;9.72;92.27
74045;BME280;62389;51.412;5.436;2023-03-23T08:59:50;100300.91;;;9.70;91.85
74045;BME280;62389;51.412;5.436;2023-03-23T09:02:16;100301.88;;;9.68;92.38
74045;BME280;62389;51.412;5.436;2023-03-23T09:04:42;100312.94;;;9.73;92.42
74045;BME280;62389;51.412;5.436;2023-03-23T09:07:09;100311.03;;;9.76;91.34
74045;BME280;62389;51.412;5.436;2023-03-23T09:09:36;100316.88;;;9.81;92.37
74045;BME280;62389;51.412;5.436;2023-03-23T09:12:02;100326.41;;;9.82;91.35
74045;BME280;62389;51.412;5.436;2023-03-23T09:14:28;100324.94;;;9.77;91.55
74045;BME280;62389;51.412;5.436;2023-03-23T09:16:53;100329.13;;;9.62;92.53
74045;BME280;62389;51.412;5.436;2023-03-23T09:19:18;100329.84;;;9.47;92.98
74045;BME280;62389;51.412;5.436;2023-03-23T09:21:45;100331.41;;;9.32;93.72
74045;BME280;62389;51.412;5.436;2023-03-23T09:24:10;100325.09;;;9.19;93.52
74045;BME280;62389;51.412;5.436;2023-03-23T09:26:36;100324.06;;;9.02;95.43
74045;BME280;62389;51.412;5.436;2023-03-23T09:29:02;100314.78;;;8.97;95.15
74045;BME280;62389;51.412;5.436;2023-03-23T09:31:27;100313.38;;;8.90;95.22
74045;BME280;62389;51.412;5.436;2023-03-23T09:33:54;100310.81;;;8.88;95.83
74045;BME280;62389;51.412;5.436;2023-03-23T09:36:21;100315.81;;;8.93;96.51
74045;BME280;62389;51.412;5.436;2023-03-23T09:38:48;100323.88;;;9.07;96.47
74045;BME280;62389;51.412;5.436;2023-03-23T09:48:56;100334.75;;;9.72;94.24
74045;BME280;62389;51.412;5.436;2023-03-23T09:51:42;100329.06;;;10.00;95.43
74045;BME280;62389;51.412;5.436;2023-03-23T09:54:29;100318.31;;;10.41;93.05
74045;BME280;62389;51.412;5.436;2023-03-23T09:56:58;100315.50;;;10.61;91.58
74045;BME280;62389;51.412;5.436;2023-03-23T09:59:26;100314.56;;;10.79;91.64
74045;BME280;62389;51.412;5.436;2023-03-23T10:01:57;100322.34;;;10.97;90.45
74045;BME280;62389;51.412;5.436;2023-03-23T10:04:38;100326.84;;;11.10;90.05
74045;BME280;62389;51.412;5.436;2023-03-23T10:09:39;100327.00;;;11.86;86.95
74045;BME280;62389;51.412;5.436;2023-03-23T10:12:17;100325.66;;;12.25;88.15
74045;BME280;62389;51.412;5.436;2023-03-23T10:17:28;100332.56;;;12.70;83.88
74045;BME280;62389;51.412;5.436;2023-03-23T10:20:21;100343.59;;;12.90;84.55
74045;BME280;62389;51.412;5.436;2023-03-23T10:25:52;100331.97;;;13.08;81.96
74045;BME280;62389;51.412;5.436;2023-03-23T10:28:20;100348.38;;;13.12;80.66
74045;BME280;62389;51.412;5.436;2023-03-23T10:30:51;100334.13;;;13.16;79.88
74045;BME280;62389;51.412;5.436;2023-03-23T10:36:08;100336.00;;;13.28;79.63
74045;BME280;62389;51.412;5.436;2023-03-23T10:38:41;100340.84;;;13.20;80.50
74045;BME280;62389;51.412;5.436;2023-03-23T10:41:14;100336.66;;;13.17;79.74
74045;BME280;62389;51.412;5.436;2023-03-23T10:43:41;100334.50;;;13.24;80.85
74045;BME280;62389;51.412;5.436;2023-03-23T10:46:24;100325.13;;;13.34;79.46
74045;BME280;62389;51.412;5.436;2023-03-23T10:48:52;100322.69;;;13.17;75.03
74045;BME280;62389;51.412;5.436;2023-03-23T10:51:23;100331.88;;;13.10;78.42
74045;BME280;62389;51.412;5.436;2023-03-23T10:53:57;100330.34;;;13.20;79.12
74045;BME280;62389;51.412;5.436;2023-03-23T10:59:13;100320.50;;;13.52;78.37
74045;BME280;62389;51.412;5.436;2023-03-23T11:01:43;100320.94;;;13.59;76.66
74045;BME280;62389;51.412;5.436;2023-03-23T11:04:14;100328.91;;;13.57;76.45
74045;BME280;62389;51.412;5.436;2023-03-23T11:06:45;100320.13;;;13.44;77.24
74045;BME280;62389;51.412;5.436;2023-03-23T11:09:16;100322.50;;;13.34;77.75
74045;BME280;62389;51.412;5.436;2023-03-23T11:11:50;100335.06;;;13.29;78.83
74045;BME280;62389;51.412;5.436;2023-03-23T11:14:25;100340.72;;;13.23;75.47
74045;BME280;62389;51.412;5.436;2023-03-23T11:16:57;100338.63;;;13.28;75.84
74045;BME280;62389;51.412;5.436;2023-03-23T11:19:29;100354.94;;;13.33;75.77
74045;BME280;62389;51.412;5.436;2023-03-23T11:24:36;100340.84;;;13.48;75.02
74045;BME280;62389;51.412;5.436;2023-03-23T11:27:06;100337.63;;;13.58;74.40
74045;BME280;62389;51.412;5.436;2023-03-23T11:29:34;100338.03;;;13.79;75.01
74045;BME280;62389;51.412;5.436;2023-03-23T11:34:41;100342.06;;;14.24;73.46
74045;BME280;62389;51.412;5.436;2023-03-23T11:37:13;100346.28;;;14.39;72.48
74045;BME280;62389;51.412;5.436;2023-03-23T11:39:49;100344.38;;;14.16;70.99
74045;BME280;62389;51.412;5.436;2023-03-23T11:42:23;100351.63;;;13.85;71.90
74045;BME280;62389;51.412;5.436;2023-03-23T11:44:53;100346.28;;;13.87;73.08
74045;BME280;62389;51.412;5.436;2023-03-23T11:47:42;100367.34;;;13.99;72.19
74045;BME280;62389;51.412;5.436;2023-03-23T11:52:49;100358.88;;;13.82;72.39
74045;BME280;62389;51.412;5.436;2023-03-23T11:58:18;100347.13;;;14.40;70.72
74045;BME280;62389;51.412;5.436;2023-03-23T12:00:51;100336.56;;;14.67;70.54
74045;BME280;62389;51.412;5.436;2023-03-23T12:15:03;100318.28;;;15.15;69.13
74045;BME280;62389;51.412;5.436;2023-03-23T12:17:53;100327.53;;;15.33;69.09
74045;BME280;62389;51.412;5.436;2023-03-23T12:20:36;100337.94;;;15.35;67.69
74045;BME280;62389;51.412;5.436;2023-03-23T12:28:42;100327.50;;;14.96;68.27
74045;BME280;62389;51.412;5.436;2023-03-23T12:33:51;100301.75;;;15.13;68.66
74045;BME280;62389;51.412;5.436;2023-03-23T12:40:06;100314.78;;;15.27;67.52
74045;BME280;62389;51.412;5.436;2023-03-23T12:48:32;100290.00;;;15.66;65.88
74045;BME280;62389;51.412;5.436;2023-03-23T12:51:19;100299.97;;;15.74;65.12
74045;BME280;62389;51.412;5.436;2023-03-23T12:56:28;100288.94;;;16.04;65.14
74045;BME280;62389;51.412;5.436;2023-03-23T12:59:17;100282.59;;;16.07;64.46
74045;BME280;62389;51.412;5.436;2023-03-23T13:01:48;100293.34;;;15.92;64.34
74045;BME280;62389;51.412;5.436;2023-03-23T13:04:22;100292.94;;;15.86;65.08
74045;BME280;62389;51.412;5.436;2023-03-23T13:06:50;100289.06;;;15.67;65.24
74045;BME280;62389;51.412;5.436;2023-03-23T13:09:44;100306.47;;;15.57;66.55
74045;BME280;62389;51.412;5.436;2023-03-23T13:12:13;100302.81;;;15.47;64.89
74045;BME280;62389;51.412;5.436;2023-03-23T13:14:41;100295.00;;;15.45;66.53
74045;BME280;62389;51.412;5.436;2023-03-23T13:25:36;100271.44;;;15.68;66.16
74045;BME280;62389;51.412;5.436;2023-03-23T13:28:04;100276.16;;;15.63;63.40
74045;BME280;62389;51.412;5.436;2023-03-23T13:30:30;100270.84;;;15.51;64.70
74045;BME280;62389;51.412;5.436;2023-03-23T13:33:06;100268.63;;;15.45;66.54
74045;BME280;62389;51.412;5.436;2023-03-23T13:35:38;100271.72;;;15.39;64.59
74045;BME280;62389;51.412;5.436;2023-03-23T13:38:23;100267.78;;;15.21;64.85
74045;BME280;62389;51.412;5.436;2023-03-23T13:40:50;100252.03;;;15.08;65.70
74045;BME280;62389;51.412;5.436;2023-03-23T13:43:25;100275.84;;;15.07;66.47
74045;BME280;62389;51.412;5.436;2023-03-23T13:45:52;100271.31;;;14.96;64.53
74045;BME280;62389;51.412;5.436;2023-03-23T13:48:23;100268.19;;;14.91;66.60
74045;BME280;62389;51.412;5.436;2023-03-23T13:50:59;100277.59;;;14.82;64.68
74045;BME280;62389;51.412;5.436;2023-03-23T13:53:51;100269.38;;;14.74;66.57
74045;BME280;62389;51.412;5.436;2023-03-23T13:56:21;100270.00;;;14.65;66.48
74045;BME280;62389;51.412;5.436;2023-03-23T13:59:13;100314.66;;;14.54;66.45
74045;BME280;62389;51.412;5.436;2023-03-23T14:01:40;100304.09;;;14.28;75.00
74045;BME280;62389;51.412;5.436;2023-03-23T14:04:17;100305.16;;;13.59;75.37
74045;BME280;62389;51.412;5.436;2023-03-23T14:06:44;100307.34;;;12.96;79.15
74045;BME280;62389;51.412;5.436;2023-03-23T14:09:16;100297.94;;;12.50;81.16
74045;BME280;62389;51.412;5.436;2023-03-23T14:11:55;100291.75;;;12.36;84.21
74045;BME280;62389;51.412;5.436;2023-03-23T14:14:42;100289.50;;;12.44;84.00
74045;BME280;62389;51.412;5.436;2023-03-23T14:17:15;100294.03;;;12.57;85.42
74045;BME280;62389;51.412;5.436;2023-03-23T14:19:44;100297.59;;;12.56;85.79
74045;BME280;62389;51.412;5.436;2023-03-23T14:22:23;100288.56;;;12.60;85.15
74045;BME280;62389;51.412;5.436;2023-03-23T14:24:49;100293.66;;;12.63;85.62
74045;BME280;62389;51.412;5.436;2023-03-23T14:27:20;100297.00;;;12.65;85.97
74045;BME280;62389;51.412;5.436;2023-03-23T14:29:46;100280.81;;;12.73;87.53
74045;BME280;62389;51.412;5.436;2023-03-23T14:32:23;100270.03;;;12.77;87.16
74045;BME280;62389;51.412;5.436;2023-03-23T14:34:51;100262.06;;;12.79;86.73
74045;BME280;62389;51.412;5.436;2023-03-23T14:37:17;100270.03;;;12.77;87.46